Terminal Aerodrome Forecast
Issued by NWS Cleveland, OH

Home | Current Version | Previous Version | Text Only | Print | Product List | Glossary Off
Versions: 1 2 3 4 5 6 7 8 9 10 11 12 13 14 15

151
FTUS41 KCLE 201140
TAFTOL
TAF
KTOL 201140Z 2012/2112 25010KT P6SM SCT200
     FM201500 27012G20KT P6SM SCT050 BKN200
     FM210000 27005KT P6SM VCSH SCT050 BKN120
     FM210300 VRB03KT P6SM SCT100=

USA.gov is the U.S. government's official web portal to all federal, state and local government web resources and services.